Challenge ACRHO

Le Jogging De La Forêt De Beloeil (20.50 km)

samedi 5 octobre 2019

Vous pouvez trouver le classement original sur : http://www.acrho.org/
CHALLENGE ACRHO
LE JOGGING DE LA FORÊT DE BELOEIL
Distance : 20.49 km
samedi 5 octobre 2019
 
place Nom Equipe Catég. Pl/Cat. temps temps/km Vitesse
1 HERNOULD FRANKY CAP TEAM SE 1 01:12:43 03:33 16.91
2 VANDENEEDE JEAN-BAPTIST   SE 2 01:13:45 03:36 16.67
3 MEURISSE BASTIEN COACH RUNNING EH 1 01:14:01 03:37 16.61
4 MUREZ ANTHONY FORMYFIT TRAKKS SE 3 01:14:21 03:38 16.54
5 VAN DEN BRULLE JO JC HERZELE V1 1 01:15:27 03:41 16.30
6 FLAMME KÉVIN PEPSE SE 4 01:15:57 03:42 16.19
7 CASTELYN MATHIEU TRAKKS TEAM SE 5 01:16:30 03:44 16.07
8 GILMET JULIEN COACH RUNNING SE 6 01:16:31 03:44 16.07
9 VANDENBERGHE LOUIS POPUELLES DR... SE 7 01:16:33 03:44 16.06
10 CHOTEAU HUGUES RUSTA V1 2 01:16:44 03:45 16.02
11 RASSCHAERT EDDY POPUELLES DR... V2 1 01:16:52 03:45 16.00
12 BILLET GRÉGORY POPUELLES DR... V1 3 01:16:52 03:45 16.00
13 ROLET SYLVAIN FORMYFIT V1 4 01:17:12 03:46 15.93
14 BAGUET SIMON ADDM OGY SE 8 01:17:25 03:47 15.88
15 DILLIES PIERRE-ELOI POPUELLES DR... SE 9 01:17:40 03:47 15.83
16 GETS VALENTIN RUNNING SAFE SE 10 01:18:07 03:49 15.74
17 WERION CHRISTIAN PRFM V2 2 01:18:35 03:50 15.65
18 MULLIEZ REMY CAP TEAM SE 11 01:18:45 03:51 15.61
19 DELATTRE LOUIS   SE 12 01:19:51 03:54 15.40
20 MOULIN JORDY POPUELLES DR... SE 13 01:20:31 03:56 15.27
21 BOUCART JÉROME SPORT EVASION SE 14 01:21:07 03:57 15.16
22 FONTAINE THOMAS RUNNING FRIENDS SE 15 01:21:23 03:58 15.11
23 VINCHENT OLIVIER VELAINES V1 5 01:21:26 03:58 15.10
24 GOBERT JÉRÔME PIPAIX SE 16 01:21:27 03:58 15.10
25 VIFQUIN CHRISTOPHE XTRA TIME RU... V1 6 01:21:32 03:59 15.08
26 STILITE LAURENT BERLIERE V1 7 01:21:43 03:59 15.05
27 DE MUNCK TANGUY TORTUES MESL... V1 8 01:21:54 04:00 15.01
28 ALOISANTONI MARCO NAC-RCABW V1 9 01:23:00 04:03 14.81
29 HERMAN JIMMY JERUSALEM FO... SE 17 01:23:05 04:03 14.80
30 DELMEULE MICHEL PIPAIX V1 10 01:23:25 04:04 14.74
31 DUSAUSOIT EDDY SPHO V1 11 01:23:39 04:05 14.70
32 TRIFIN IVAN   V1 12 01:23:49 04:05 14.67
33 LELONG RAPHAËL RUN FOR FUN ... SE 18 01:23:53 04:06 14.66
34 WILLOCQ CHRISTOPHE RUNNING SAFE V1 13 01:24:05 04:06 14.62
35 STOCMAN YANNICK CAP TEAM V1 14 01:24:55 04:09 14.48
36 POURTOIS GILLES ADDM OGY V1 15 01:25:01 04:09 14.46
37 VELGHE JEAN PIPAIX V2 3 01:25:04 04:09 14.46
38 LELEU SYLVAIN   V1 16 01:25:16 04:10 14.42
39 DECOCQ JACQUES-ANTOINE ETM SE 19 01:25:21 04:10 14.41
40 LEMOINE SAMUEL CAP TEAM V1 17 01:25:23 04:10 14.40
41 TRICARICO LAURENT   V1 18 01:25:28 04:10 14.39
42 MINET JIMMY ET ENGHIEN SE 20 01:25:40 04:11 14.35
43 FONTAINE ROBERT RUNNING FRIENDS V1 19 01:25:57 04:12 14.31
44 BONNIER VINCENT   SE 21 01:26:04 04:12 14.29
45 KESTELYN BAPTISTE RUSTA SE 22 01:26:05 04:12 14.28
46 LECLERCQ BENOÎT COACH RUNNING V1 20 01:26:08 04:12 14.28
47 BRUYERE ZAKARIA   SE 23 01:26:09 04:12 14.27
48 GUSTIN JEFF RC ESTAIMPUIS SE 24 01:26:43 04:14 14.18
49 SAUSSEZ JÉRÔME   SE 25 01:26:51 04:14 14.16
50 STIENNES JOHAN BCH V1 21 01:27:00 04:15 14.13
51 DERREUMAUX DAVID RUNNING SAFE V1 22 01:27:01 04:15 14.13
52 DUJARDIN VIRGINIE LES NOIX DE ... A1 1 01:27:09 04:15 14.11
53 SÖHNLE ERICH TORTUES MESL... SE 26 01:27:14 04:15 14.10
54 DEROISSART PHILIPPE POPUELLES DR... V1 23 01:27:21 04:16 14.08
55 VERRUE SÉBASTIEN   SE 27 01:27:34 04:16 14.04
56 PATIN SERGE COACH RUNNING V2 4 01:27:43 04:17 14.02
57 WAUQUIEZ XAVIER   V1 24 01:27:52 04:17 13.99
58 MANCHE DAVID TEMPLEUVE V1 25 01:27:54 04:17 13.99
59 VANDEPUTTE CHRISTOPHE JC HERINNES V1 26 01:27:57 04:17 13.98
60 DUMOULIN RUDI COACH RUNNING V2 5 01:27:59 04:18 13.98
61 DELMEE GREGORY   V1 27 01:28:04 04:18 13.96
62 LAMONT MICHAEL ADDM OGY V1 28 01:28:27 04:19 13.90
63 FRÉCOURT XAVIER   V1 29 01:28:40 04:20 13.87
64 BRAYE LAURENT   V1 30 01:28:40 04:20 13.87
65 VERZELE MAXIME KAIN B SE 28 01:29:09 04:21 13.79
66 LEBAILLY HUGO ACBB EH 2 01:29:16 04:21 13.77
67 BORZEE CHRISTOPHE CC VISSEURS V1 31 01:29:20 04:22 13.76
68 GUIZARD OLIVIER   V2 6 01:29:23 04:22 13.76
69 SOLDAI PATRICK   V3 1 01:29:23 04:22 13.76
70 ARESU FABIAN   SE 29 01:29:28 04:22 13.74
71 MARIAGE MICHEL BAC V3 2 01:29:28 04:22 13.74
72 DERYCKE ANTHONY CAP TEAM SE 30 01:29:28 04:22 13.74
73 DUPRET DIDIER BAC V2 7 01:29:32 04:22 13.73
74 REMUS PIERRE   V2 8 01:29:45 04:23 13.70
75 DIERYCK PASCAL   V2 9 01:29:55 04:23 13.68
76 LEJEUNE SIMON HAVIGNOBLE SE 31 01:29:56 04:23 13.67
77 CLEMENT GEORGES PIPAIX SE 32 01:29:57 04:23 13.67
78 PIRON GILLES RUNNING SAFE SE 33 01:29:58 04:23 13.67
79 DE CUBBER MARC BAC V3 3 01:30:08 04:24 13.64
80 DEHUT SÉBASTIEN RUN FOR FUN SE 34 01:30:09 04:24 13.64
81 BOULANGER JULIEN COACH RUNNING SE 35 01:30:19 04:24 13.61
82 DELCOURT ROMUALD   V1 32 01:30:21 04:25 13.61
83 LEMOINE FABIAN RUNNING SAFE SE 36 01:30:45 04:26 13.55
84 BARBIER LAURENT   SE 37 01:30:50 04:26 13.54
85 BEVERNAEGIE CHRIS   V1 33 01:30:57 04:26 13.52
86 CAMBIER DAVID   V1 34 01:31:15 04:27 13.48
87 DESCARPENTRIES FABRICE RUNNING SAFE V2 10 01:31:23 04:28 13.46
88 ROBETTE DAMIEN LES LEUZOIS ... SE 38 01:31:48 04:29 13.39
89 COLLE DIETER VACBL V1 35 01:31:58 04:29 13.37
90 VAN NESTÉ MICHEL TEAM RUNNING 46 SE 39 01:32:15 04:30 13.33
91 DELHAYE LAURENT KERVASSIN SE 40 01:32:24 04:31 13.31
92 BULTEAU BENOÎT TRIATH SE 41 01:32:29 04:31 13.30
93 PIERAERT KEVIN   SE 42 01:32:32 04:31 13.29
94 DEPAUW EMMANUEL   V2 11 01:32:40 04:31 13.27
95 PIERAERT GUY TRI ATH V2 12 01:32:53 04:32 13.24
96 FROISSART FABRICE SPHO V1 36 01:32:55 04:32 13.23
97 HABERT JEAN-PHILIPPE   V1 37 01:32:56 04:32 13.23
98 GROPELLO BLAISE THE PASSENGER SE 43 01:33:01 04:32 13.22
99 COTILS MICHEL OBJ V2 13 01:33:02 04:32 13.22
100 BARIGAND CYRIL TCDM SE 44 01:33:05 04:33 13.21
101 STOCLET FABIAN   SE 45 01:33:09 04:33 13.20
102 PHELIZON CHRISTOPHE TEMPLEUVE V2 14 01:33:09 04:33 13.20
103 MONFORT MICHAEL   V1 38 01:33:14 04:33 13.19
104 GEETS CÉDRIC   SE 46 01:33:20 04:33 13.17
105 OPSOMER BRUNO POTES O MALTES SE 47 01:33:35 04:34 13.14
106 FICHERE SYLVAIN RC ESTAIMPUIS V2 15 01:33:39 04:34 13.13
107 VILLANI ANTONIO   V1 39 01:33:45 04:34 13.12
108 DE LOET GYSSELS GERALD MOHA V1 40 01:33:49 04:35 13.11
109 MASELIS PASCAL   V1 41 01:34:03 04:35 13.07
110 THIBAUT LOUIS RUN & SMASH SE 48 01:34:11 04:36 13.06
111 RADOT THOMAS ET CHIEVRES V1 42 01:34:16 04:36 13.04
112 VILLET KÉVIN TRAKKS TEAM SE 49 01:34:20 04:36 13.04
113 DUJARDIN CATHERINE LES NOIX DE ... DA 1 01:34:27 04:37 13.02
114 COLMANT-MIDOL MICHEL   V1 43 01:34:28 04:37 13.02
115 THIELEMANS SÉBASTIEN POTES O MALTES SE 50 01:34:28 04:37 13.02
116 PADOVANO QUENTIN CEPAL SE 51 01:34:29 04:37 13.01
117 MERTENS PASCAL COCOACH V2 16 01:34:38 04:37 12.99
118 TASKIN KENAN RUNNING SAFE SE 52 01:34:40 04:37 12.99
119 SPERLICH GUILLAUME ACBB V1 44 01:34:45 04:37 12.98
120 DEWAELLE MICHEL RC ESTAIMPUIS V2 17 01:34:47 04:37 12.97
121 LIBBRECHT NICOLAS ACBB SE 53 01:34:48 04:38 12.97
122 DEVELLE VIVIEN   SE 54 01:34:50 04:38 12.97
123 LETURCQ FABIEN SPHO SE 55 01:34:53 04:38 12.96
124 SEMET JULIEN POTES O MALTES SE 56 01:35:07 04:38 12.93
125 DURANT LUC RSCM V2 18 01:35:14 04:39 12.91
126 STEVENS STEPHAN TORTUES MESL... V1 45 01:35:20 04:39 12.90
127 MAILLY ALBERT   SE 57 01:35:30 04:40 12.88
128 MASELIS JOHNNY   V1 46 01:35:34 04:40 12.87
129 BRICHAUT OLIVIER   V1 47 01:35:34 04:40 12.87
130 FOUQUETTE SÉBASTIEN ADDM OGY V1 48 01:35:48 04:40 12.84
131 PROCUREUR LAURENT AC BELOEIL SE 58 01:35:49 04:41 12.83
132 MOULIN FRANK CC VISSEURS V1 49 01:35:52 04:41 12.83
133 BEVERNAGIE GWEN   SE 59 01:35:52 04:41 12.83
134 MAS BRUNO PIPAIX V2 19 01:35:55 04:41 12.82
135 DE CRAENE THOMAS   EH 3 01:35:59 04:41 12.81
136 VANHOUTE OLIVIER   SE 60 01:36:09 04:41 12.79
137 ANSCIAUX BENJAMIN   SE 61 01:36:20 04:42 12.76
138 BARREZ FRANCIS JC DES COLLINES V3 4 01:36:30 04:43 12.74
139 PETILLON PHILIPPE   SE 62 01:36:38 04:43 12.72
140 DESMONS RICHARD   SE 63 01:36:39 04:43 12.72
141 LEYNAU FABRICE   V1 50 01:36:47 04:43 12.71
142 VERSTRAETE VINCENT   V1 51 01:36:47 04:43 12.71
143 HEYMSBRUGHEM CHRISTOPHE   V1 52 01:36:49 04:43 12.70
144 LUMEN EMMANUEL ATH ATHLETISME V1 53 01:36:49 04:43 12.70
145 LEBAILLY QUENTIN ACBB SE 64 01:36:50 04:43 12.70
146 DUTRIEUX FERNAND   V1 54 01:36:52 04:44 12.69
147 VANDENBROUCKE GINO JCL V2 20 01:36:53 04:44 12.69
148 DUJARDIN PATRICK MORDUS DU VELO V2 21 01:36:55 04:44 12.69
149 STEVENS ADRIEN TORTUES MESL... SE 65 01:36:59 04:44 12.68
150 AMORISON ANDY   SE 66 01:37:00 04:44 12.68
151 DELCOURT FLORENCE LES ECLATES ... A2 1 01:37:02 04:44 12.67
152 SPERLICH CHARLES SOET TEAM SE 67 01:37:02 04:44 12.67
153 LEFEBVRE NICOLAS TEMPLEUVE V2 22 01:37:09 04:44 12.66
154 WESTERLINCK STEFAAN VASTGOEDBOX V1 55 01:37:11 04:45 12.65
155 BOSQUILLON QUENTIN TRI ATH SE 68 01:37:12 04:45 12.65
156 DEGLASSE YVON   V2 23 01:37:17 04:45 12.64
157 VAN CEUNEBROECK MICHEL LES CEUSSES ... V2 24 01:37:29 04:45 12.61
158 PERSICH MAXENCE   SE 69 01:37:40 04:46 12.59
159 DRICOT LOÏC ACBB SE 70 01:37:44 04:46 12.58
160 DELYS CHRISTOPHE AC BELOEIL V2 25 01:37:47 04:46 12.58
161 MORLEGHEM STÉPHANE TRI ATH V2 26 01:37:48 04:46 12.57
162 DILLIES EDOUARD LES GENS D ERE SE 71 01:38:02 04:47 12.54
163 LEDENT JÉRÉMY BAC SE 72 01:38:02 04:47 12.54
164 VAN DRIESSCHE DAMIEN VELAINES V1 56 01:38:04 04:47 12.54
165 PARENT CHARLOTTE   A1 2 01:38:04 04:47 12.54
166 ROZEL GAUTHIER SUKCESTFOU V1 57 01:38:07 04:47 12.53
167 GUERIN JEAN-CHRISTOPHE LES CHAPELIE... V1 58 01:38:12 04:47 12.52
168 DECOCK MICHEL RC ESTAIMPUIS V3 5 01:38:16 04:48 12.51
169 DEBOEVER GUILLAUME   SE 73 01:38:30 04:48 12.48
170 LAURENT ALEX AC ST SAUVEU... V2 27 01:38:31 04:48 12.48
171 HAJDU VALENTIN RUNNING SAFE SE 74 01:38:35 04:49 12.47
172 DECROÏE ALAIN ADDM OGY V2 28 01:38:43 04:49 12.46
173 DEMARET CHRISTOPHE TORTUES MESL... V1 59 01:38:43 04:49 12.46
174 NAUW PIERRE TRI ATH SE 75 01:38:46 04:49 12.45
175 BALAND JOHAN FARMERS CLUB V1 60 01:38:50 04:49 12.44
176 OLBRECHTS NISSIM   SE 76 01:38:56 04:50 12.43
177 HENRARD CHRISTOPHE   V1 61 01:39:00 04:50 12.42
178 GRUMIAUX JOËL NA PAGANK V1 62 01:39:08 04:50 12.40
179 ROELENS MARC-OLIVIER JUPITEAM V1 63 01:39:16 04:51 12.39
180 NAVEZ ERIC RUN & SMASH V1 64 01:39:22 04:51 12.37
181 BALCAEN PHILIPPE   V2 29 01:39:23 04:51 12.37
182 HENRARD JÉRÉMY ROCCO TEAM SE 77 01:39:25 04:51 12.37
183 BAUTS YVES RC ESTAIMPUIS V3 6 01:39:26 04:51 12.37
184 MISSANTE STEPHANE TORTUES MESL... V1 65 01:39:28 04:51 12.36
185 NAVEZ ROMAIN RUN & SMASH EH 4 01:39:28 04:51 12.36
186 WANEUKEM PHILIPPE LES CEUSSES ... V1 66 01:39:29 04:51 12.36
187 DI PASQUALE SANTINO   V3 7 01:39:29 04:51 12.36
188 BOUVRY JEAN-MICHEL VELAINES V1 67 01:39:29 04:51 12.36
189 PARMENTIER JEAN-CLAUDE JCL V3 8 01:39:36 04:52 12.35
190 VAN DURMEN PHILIPPE RUNNING SAFE V1 68 01:39:36 04:52 12.35
191 DE SAINT MARTIN ALAIN FARMERS CLUB SE 78 01:39:42 04:52 12.33
192 FERDIN FABIAN   V2 30 01:39:43 04:52 12.33
193 BRASSART NICOLAS   SE 79 01:39:47 04:52 12.32
194 BRALION CÉDRIC   V1 69 01:39:47 04:52 12.32
195 CLAEYS GRÉGORY   V1 70 01:39:53 04:52 12.31
196 FLAMMIA FRANCOIS CAP TEAM SE 80 01:39:53 04:52 12.31
197 CHAPUIS FABIEN FRIENDS V1 71 01:39:57 04:53 12.30
198 MARIAGE FLORIAN   V1 72 01:39:59 04:53 12.30
199 DILLIES BERNARD FARMERS CLUB V2 31 01:40:02 04:53 12.29
200 VAN DEN HAUTE HERMAN ADDM OGY V3 9 01:40:02 04:53 12.29
201 QUARRE MICHAËL   V1 73 01:40:05 04:53 12.29
202 HUYGHE EMMANUEL LES CEUSSES ... V1 74 01:40:06 04:53 12.28
203 ARTISIEN VINCENT   V1 75 01:40:09 04:53 12.28
204 GOOR FRANCOIS   V1 76 01:40:14 04:53 12.27
205 GODTBIL VINCENT   SE 81 01:40:14 04:53 12.27
206 MOUTIEZ CÉCILE TRI ATH A2 2 01:40:17 04:54 12.26
207 WINAND REGIS THE PASSENGER V1 77 01:40:19 04:54 12.26
208 DEBROUX STEFAN TRI ATH V1 78 01:40:19 04:54 12.26
209 GHISLAIN BÉNÉDICTE   DA 2 01:40:23 04:54 12.25
210 VAN DEN BRULLE VEERLE   A1 3 01:40:25 04:54 12.25
211 DELHEZ ROMARIC KAIN B V1 79 01:40:25 04:54 12.25
212 BAILEY EDWARD CAP TEAM V1 80 01:40:33 04:54 12.23
213 VANDENBULCKE ARNAUD RC ESTAIMPUIS V1 81 01:40:40 04:55 12.21
214 HOUREZ DYLAN JC BLANDAIN SE 82 01:40:44 04:55 12.21
215 PLASMAN ALEXANDRE   SE 83 01:40:50 04:55 12.19
216 GIANNONE ALDO TEMPLEUVE V1 82 01:40:53 04:55 12.19
217 BROUILLARD VINCENT TOURNAI GENE... V1 83 01:40:54 04:55 12.19
218 CRAPEZ LORY JC QUIEVRAIN V1 84 01:41:01 04:56 12.17
219 STEVENS EMERIC TORTUES MESL... SE 84 01:41:04 04:56 12.17
220 MARTIN FRANÇOIS   V1 85 01:41:05 04:56 12.16
221 DEGELS DAVID BAD BOYS V1 86 01:41:11 04:56 12.15
222 CORNU GAËTAN KAIN B V2 32 01:41:15 04:56 12.14
223 ABRAHAM STEVE POTES O MALTES V1 87 01:41:17 04:57 12.14
224 COURIER GILLES TOURNAI GENE... V1 88 01:41:21 04:57 12.13
225 CUVELIER NICOLAS   V1 89 01:41:23 04:57 12.13
226 JORION MICHAEL LES AMIS JOG... V1 90 01:41:30 04:57 12.11
227 FERNANDES JOAQUIM MMM V2 33 01:41:31 04:57 12.11
228 WILLOCQ PHILIPPE   V2 34 01:41:31 04:57 12.11
229 DE CONINCK GASPARD   EH 5 01:41:33 04:57 12.11
230 DECONINCK AURELIEN   SE 85 01:41:40 04:58 12.09
231 DUBUISSON RUDDY OBJ V1 91 01:41:42 04:58 12.09
232 LABAYE CHRISTOPHE ECLATES PERU... V1 92 01:41:42 04:58 12.09
233 VERMEERSCH KOEN VAC BEVEREN-... V1 93 01:41:44 04:58 12.09
234 DUFOUR PHILIPPE VELAINES V2 35 01:41:46 04:58 12.08
235 VANTORRE SÉBASTIEN SPORT EVASION SE 86 01:41:47 04:58 12.08
236 DEMOLS PIERRE   V1 94 01:41:53 04:58 12.07
237 TRINTELER SIMON RC ESTAIMPUIS SE 87 01:41:56 04:58 12.06
238 LEFEBVRE OLIVIER   V1 95 01:41:59 04:59 12.06
239 MALVOISIN FLORIAN   SE 88 01:41:59 04:59 12.06
240 CARPENTIER SYLVIE RUNNING SAFE DA 3 01:42:00 04:59 12.06
241 SAVARY HUGO FARMERS CLUB V1 96 01:42:00 04:59 12.06
242 COURBET ANNICK   A2 3 01:42:03 04:59 12.05
243 BOITTE CÉDRIC MMM V1 97 01:42:04 04:59 12.05
244 LECLERCQ EDDY KAIN B V3 10 01:42:07 04:59 12.04
245 LEPOUTRE VINCENT SPORT EVASION V1 98 01:42:14 04:59 12.03
246 DIEZ ESTEBAN FARMERS CLUB V1 99 01:42:14 04:59 12.03
247 DEMAN MAXIME TEMPLEUVE SE 89 01:42:15 04:59 12.03
248 TEMPERMAN GAËTAN AMIS DU MARDI V1 100 01:42:18 05:00 12.02
249 CARDON FABRICE   V2 36 01:42:20 05:00 12.02
250 LEBBE PATRICIA L3A A2 4 01:42:26 05:00 12.00
251 CORYN STÉPHANE   V1 101 01:42:28 05:00 12.00
252 ANDREADAKIS EDDY AMIS JOGGEUR... V1 102 01:42:28 05:00 12.00
253 CHRISTIAENS XAVIER TOURNAI GENE... V1 103 01:42:29 05:00 12.00
254 TOUBEAU DOMINIQUE SPHO V2 37 01:42:31 05:00 11.99
255 DUQUENNE MICHEL JCSA V3 11 01:42:35 05:00 11.99
256 REBELLA DAMIEN   SE 90 01:42:37 05:00 11.98
257 ROGGE JOHAN   V4 1 01:42:49 05:01 11.96
258 DELCAMPE MAXIME   SE 91 01:42:51 05:01 11.96
259 DEGRYSE QUENTIN RUNNINGGEEK SE 92 01:42:58 05:01 11.94
260 FLASSE DAMIEN TRI ATH V1 104 01:42:58 05:01 11.94
261 VERHAEGH DIMITRI RC ESTAIMPUIS SE 93 01:43:03 05:02 11.93
262 LHEUREUC DIMITRI   V1 105 01:43:07 05:02 11.92
263 CAUCHEFER DAVID   V1 106 01:43:18 05:02 11.90
264 FOHAL JEAN-LUC ET CHIEVRES V2 38 01:43:19 05:02 11.90
265 NAIZY ARNAUD OSGA SAINT-G... SE 94 01:43:20 05:03 11.90
266 DROUMART DAMIEN   SE 95 01:43:20 05:03 11.90
267 SCOUBEAU OLIVIER HAC V2 39 01:43:23 05:03 11.89
268 DEROUBAIX DAVID   SE 96 01:43:25 05:03 11.89
269 DEWULF GRÉGORY COACH RUNNING V2 40 01:43:43 05:04 11.86
270 VERHAEGHE PATRICK JCSA V3 12 01:43:48 05:04 11.85
271 DUJARDIN AUXANNE LES NOIX DE ... ED 1 01:43:50 05:04 11.84
272 HACHE FABIEN   SE 97 01:43:51 05:04 11.84
273 HOULAIT ALAIN HAC V2 41 01:43:54 05:04 11.83
274 MESTDAGH VINCENT JC HERINNES V2 42 01:43:56 05:04 11.83
275 BARBERA GILLES LES AMIS JOG... SE 98 01:43:58 05:04 11.83
276 DUVEILLIER AMÉLIE RC ESTAIMPUIS A1 4 01:43:58 05:04 11.83
277 TOUSSAINT VALÉRIE SC COACHING DA 4 01:44:02 05:05 11.82
278 VAN DER VENNET EMILIE SAINT CHARLES DA 5 01:44:15 05:05 11.80
279 BRABANT NICOLAS BAC V1 107 01:44:19 05:05 11.79
280 DUFOUR DIMITRI TEMPLEUVE SE 99 01:44:22 05:06 11.78
281 STILITE BERTRAND   V2 43 01:44:29 05:06 11.77
282 DECLEVE BENOIT POTES O MALTES SE 100 01:44:30 05:06 11.77
283 VANBLERICQ FLORENT   V1 108 01:44:38 05:06 11.75
284 DE STOMMELEIR HUGUES   V2 44 01:44:42 05:07 11.74
285 DUQUENNE MIREILLE   A1 5 01:44:42 05:07 11.74
286 DEVROEDE NORBERT POPUELLES DR... V3 13 01:44:45 05:07 11.74
287 FEYS BERT DE DARTELE D... SE 101 01:44:51 05:07 11.73
288 BATAILLE CLAUDE RC ESTAIMPUIS V4 2 01:44:53 05:07 11.72
289 COINNE PHILIPPE TORTUES MESL... V1 109 01:45:00 05:07 11.71
290 MESTDAGH ANDRÉ SPHO V2 45 01:45:12 05:08 11.69
291 HORVATH MARIE-LAURE   DA 6 01:45:19 05:08 11.68
292 DENECKERE ANDRÉ VDB V2 46 01:45:23 05:09 11.67
293 TRUANT PHILIP XTRA TIME RU... SE 102 01:45:24 05:09 11.67
294 BELLET MAXIMILIEN   SE 103 01:45:28 05:09 11.66
295 STAQUET CHRISTOPHE TRI ATH V2 47 01:45:31 05:09 11.65
296 CHANTRY LOUIS POPUELLES DR... V2 48 01:45:55 05:10 11.61
297 DAUGE CHRISTOPHE RUN & SMASH V1 110 01:45:55 05:10 11.61
298 GRUSON BENOIT RUN & SMASH SE 104 01:46:00 05:10 11.60
299 DESLAEF JÉRÔME AGRATI V1 111 01:46:02 05:10 11.60
300 DEBOSSCKER FRANÇOIS JCPMF PECQ V1 112 01:46:08 05:11 11.59
301 DE SCHRYVER ANDRÉ ACG V3 14 01:46:11 05:11 11.58
302 LIETARD LAURENT TRI ATH V1 113 01:46:12 05:11 11.58
303 VAN MALLEGHEM ARIANE KAIN B A2 5 01:46:16 05:11 11.57
304 SAEN DOMINIQUE MONTS ET COL... SE 105 01:46:25 05:12 11.55
305 DEBOEVER FRANCIS   V2 49 01:46:26 05:12 11.55
306 LEFEBVRE ALEXANDRE FC POULPY SE 106 01:46:33 05:12 11.54
307 DE ROUCK FRÉDÉRIC POTES O MALTES V1 114 01:46:37 05:12 11.53
308 VAN CALSTER GAËTAN TOURNAI GENE... V1 115 01:46:38 05:12 11.53
309 DELCOIGNE NICOLAS POTES O MALTES SE 107 01:46:41 05:12 11.53
310 DUCHAUCHOI RUDY   SE 108 01:46:41 05:12 11.53
311 DUMORTIER OLIVIER ETM V1 116 01:46:43 05:12 11.52
312 ROYANT ERIC   V2 50 01:46:45 05:13 11.52
313 SCHLOSSMACHER SANDRA ACBB DA 7 01:46:49 05:13 11.51
314 THULIER KEVIN   SE 109 01:46:53 05:13 11.50
315 WANIN JOHAN   SE 110 01:46:54 05:13 11.50
316 GIZZI DOROTHÉE   A2 6 01:46:56 05:13 11.50
317 GIZZI STÉPHAN TRIATHLON LI... V2 51 01:46:56 05:13 11.50
318 DEBAISIEUX SERGE BAC V3 15 01:47:08 05:14 11.48
319 SAMAIN ANTHONY COACH RUNNING V2 52 01:47:13 05:14 11.47
320 GRESSIER GILLES   V2 53 01:47:15 05:14 11.47
321 HAJDU PASCAL   V2 54 01:47:29 05:15 11.44
322 DI STAZIO DONATO JC BAUDOUR V3 16 01:47:31 05:15 11.44
323 VAN HONACKER ETIENNE HAC V3 17 01:47:35 05:15 11.43
324 VAN HONACKER YOHANN HAC SE 111 01:47:36 05:15 11.43
325 BOURGI PATRICK B BETES DE C... V2 55 01:47:37 05:15 11.43
326 DEGRANSART JOHAN B BETES DE C... V1 117 01:47:38 05:15 11.42
327 FONTAINE LAURENT ET CHIEVRES V1 118 01:47:41 05:15 11.42
328 HOUDOU SOPHIE   A1 6 01:47:41 05:15 11.42
329 PLATTEAU EMMANUEL ET CHIEVRES V1 119 01:47:45 05:15 11.41
330 PETINI MAURIZIO   V2 56 01:47:46 05:16 11.41
331 SIMONART CHRISTOPHE   SE 112 01:47:48 05:16 11.41
332 LEMAITRE MICHEL JC HERINNES V2 57 01:47:49 05:16 11.40
333 BONTE LAURENCE JCPMF PECQ A2 7 01:47:49 05:16 11.40
334 SILVA FRANCESCO BAC SE 113 01:47:50 05:16 11.40
335 DOBBELEIRE JEAN MARC   V1 120 01:47:51 05:16 11.40
336 HOEDT NATACHA MMM A1 7 01:47:58 05:16 11.39
337 BILLIET FABRICE AC ST SAUVEU... V2 58 01:48:01 05:16 11.38
338 ODENT STÉPHANE MMM V2 59 01:48:07 05:17 11.37
339 FOUCART MIKE   V1 121 01:48:16 05:17 11.36
340 LUMEN JONATHAN   SE 114 01:48:21 05:17 11.35
341 LORENT EMMA VERTIGO A1 8 01:48:21 05:17 11.35
342 SPILEERS MARIE HELENE RUNNING SAFE DA 8 01:48:22 05:17 11.35
343 STEVENS LAURENT ACCROS 5 CLO... V1 122 01:48:35 05:18 11.32
344 CONIL NICOLAS TEMPLEUVE SE 115 01:48:44 05:18 11.31
345 DESLEE ERIC KAIN B V2 60 01:48:58 05:19 11.28
346 DECLERCQ THOMAS   EH 6 01:49:00 05:19 11.28
347 NELIS BENOIT JCPMF V2 61 01:49:02 05:19 11.28
348 DEPAUW GRÉGORY   SE 116 01:49:04 05:19 11.27
349 DE SMET ALEXANDRINE TORTUES MESL... A1 9 01:49:05 05:19 11.27
350 SENNI ALESSIO SEMI DE L'OU... SE 117 01:49:06 05:19 11.27
351 DEMITRI COSIMO TORTUES MESL... V3 18 01:49:17 05:20 11.25
352 BLONDEAU FRÉDÉRIC   V2 62 01:49:18 05:20 11.25
353 WAELES ANNE-SOPHIE LES ECLATES ... A1 10 01:49:19 05:20 11.25
354 WERREBROUCK BLAISE   V2 63 01:49:22 05:20 11.24
355 CARDOSO MANUEL ROCCO TEAM V1 123 01:49:27 05:20 11.23
356 DEPRETZ FRÉDÉRIC TEAM RUNNING 46 SE 118 01:49:27 05:20 11.23
357 GLANES JEAN-MARC   V3 19 01:49:29 05:21 11.23
358 CARELS DIDIER RUN AND SMASH V1 124 01:49:31 05:21 11.23
359 DERAMAIX MATTHIEU   SE 119 01:49:32 05:21 11.23
360 D HONT ROBERT VAC BEVEREN-... V4 3 01:49:39 05:21 11.21
361 BRAQUENIER CAROLINE RC ESTAIMPUIS A1 11 01:49:49 05:22 11.20
362 HENNI JAMILA TEAM ROCKET DS A2 8 01:49:54 05:22 11.19
363 ROOS JOËL RUN 4 FUN V2 64 01:49:57 05:22 11.18
364 HASCOËT CHARLOTTE   DA 9 01:49:57 05:22 11.18
365 TAHON PATRICE HAVIGNOBLE V2 65 01:49:57 05:22 11.18
366 HOYAS OLIVIER TEAM ROCKET DS V2 66 01:50:09 05:22 11.16
367 VAN EECKHOUT DIRK VAC BEVEREN-... V2 67 01:50:11 05:23 11.16
368 GILQUAIN PATRICK ETC V1 125 01:50:11 05:23 11.16
369 DEVROEY VANESSA FARMERS CLUB A1 12 01:50:14 05:23 11.15
370 MAES ERIC   V1 126 01:50:19 05:23 11.15
371 ARCHELON FRÉDÉRIC   V1 127 01:50:21 05:23 11.14
372 DEBOUVRIE SEBASTIEN   SE 120 01:50:23 05:23 11.14
373 VLAMINCK ALLAIN RUNNIN GREZ V3 20 01:50:27 05:23 11.13
374 DALEBROUX VINCENT   V2 68 01:50:36 05:24 11.12
375 SAELENS BENOÎT ROCCO TEAM V1 128 01:50:36 05:24 11.12
376 HENRARD MARC ROCCO TEAM V1 129 01:50:37 05:24 11.12
377 MOREAU CHRISTOPHE   V1 130 01:50:41 05:24 11.11
378 CRAMMER CHRISTIAN   V3 21 01:50:42 05:24 11.11
379 DE CUBBER JACQUES BAC V2 69 01:50:43 05:24 11.11
380 DEREPPE MAGALI   A1 13 01:50:44 05:24 11.10
381 VANLANCKER LEO   SE 121 01:50:45 05:24 11.10
382 GLORIEUX PIERRE VELAINES V1 131 01:50:46 05:24 11.10
383 CASTERMAN THIERRY   V2 70 01:50:50 05:24 11.09
384 ROTY MICHEL KAIN B V4 4 01:50:56 05:25 11.08
385 LOTOI DAVID   V1 132 01:50:58 05:25 11.08
386 WULLAERT DAVID   V1 133 01:50:59 05:25 11.08
387 GHEM JEFF LES CHAISES ... SE 122 01:51:01 05:25 11.08
388 QUINTILI LAURENT LES ECLATES ... V1 134 01:51:03 05:25 11.07
389 VAN DYK DAMIEN TEMPLEUVE V1 135 01:51:06 05:25 11.07
390 DUFRANE MICHEL HAC V3 22 01:51:12 05:26 11.06
391 BERTON JEAN-MARC   V2 71 01:51:19 05:26 11.05
392 BOCQUILLET MATTHIEU ROCCO TEAM V1 136 01:51:23 05:26 11.04
393 COEURET MICHEL AU PTIT BONHEUR V4 5 01:51:25 05:26 11.04
394 ROZEL NATHAN   EH 7 01:51:42 05:27 11.01
395 MARIAGE TANGUY COACH RUNNING V1 137 01:51:49 05:27 11.00
396 DAYE JEAN-ROBERT LES NOIX DE ... V3 23 01:51:50 05:27 11.00
397 BRANCART POL COV SE 123 01:51:50 05:27 11.00
398 CHARLES STÉPHANE JC HERINNES V1 138 01:51:51 05:27 10.99
399 BARGIBANT PATRICK BAC V2 72 01:51:54 05:28 10.99
400 LECAT DANIEL ACCROS 5 CLO... V2 73 01:51:58 05:28 10.98
401 PARENT LAURE   DA 10 01:52:01 05:28 10.98
402 MEURISSE DANIEL COACH RUNNING V2 74 01:52:01 05:28 10.98
403 VERDY JACQUES KAIN B V3 24 01:52:03 05:28 10.97
404 DE MEESTER BRADLY   SE 124 01:52:09 05:28 10.96
405 BAEKELANDT DANY VELAINES V2 75 01:52:11 05:28 10.96
406 DEVOS GORIK KASVO V1 139 01:52:14 05:29 10.96
407 VANROBAYS MARIE-LAURE COACH RUNNING DA 11 01:52:15 05:29 10.95
408 RHEIMS JÉRÔME   V2 76 01:52:16 05:29 10.95
409 MOONENS JEAN-NOËL   V1 140 01:52:21 05:29 10.94
410 HACHA MARGOT   DA 12 01:52:21 05:29 10.94
411 WAGNAIR HUGO   SE 125 01:52:30 05:29 10.93
412 BEGUE JEAN-FRANÇOIS JCPMF PECQ V1 141 01:52:33 05:30 10.93
413 FLAMME JEAN-MICHEL JCSA V3 25 01:52:44 05:30 10.91
414 VERDEBOUT JEAN-MICHEL JC HERINNES V2 77 01:52:58 05:31 10.88
415 MEURET PHILIPPE ACB V1 142 01:52:58 05:31 10.88
416 PHILIPPE JEAN-FRANÇOIS   V2 78 01:52:59 05:31 10.88
417 GYSELINCK VALÉRIE   A2 9 01:53:07 05:31 10.87
418 COLLIE FABIAN XTRA TIME RU... V1 143 01:53:14 05:32 10.86
419 DEPELCHIN MARTINE   A2 10 01:53:15 05:32 10.86
420 CHOQUET MÉLANIE RTEAD A1 14 01:53:22 05:32 10.85
421 BAUGNIES VALERIE TORTUES MESL... A1 15 01:53:26 05:32 10.84
422 HUAUX SYLVIE FARMERS CLUB A1 16 01:53:26 05:32 10.84
423 RAMU ANNICK KAIN B A2 11 01:53:35 05:33 10.83
424 LOTTEN CAROLE JCPMF LESSINES A1 17 01:53:36 05:33 10.82
425 VANDENHEULE FREDERIC   V1 144 01:53:37 05:33 10.82
426 ABIDAT DJAMAL JC BAUDOUR V3 26 01:53:43 05:33 10.81
427 TSOLAKIS CHRISTOPHE   V1 145 01:53:50 05:33 10.80
428 NEF LUDOVIC JUPITEAM V1 146 01:54:09 05:34 10.77
429 GORNIAK ALAIN   V3 27 01:54:16 05:35 10.76
430 DE RUY PETER   V1 147 01:54:19 05:35 10.76
431 MAT BENOÎT TOURNAI GENE... V2 79 01:54:27 05:35 10.74
432 DUPLAT CÉCILE   DA 13 01:54:28 05:35 10.74
433 MARGINET OLIVIER JC HERINNES V1 148 01:54:36 05:36 10.73
434 FASTREZ CHRISTOPHE   V1 149 01:54:37 05:36 10.73
435 RYCKAERT ALAIN TORTUES MESL... V1 150 01:54:37 05:36 10.73
436 WILSSENS JULIE RUNNING SAFE DA 14 01:54:38 05:36 10.73
437 BOHEMS ANDRÉ ACCROS 5 CLO... V2 80 01:54:38 05:36 10.73
438 VERHELST JEAN-MICHEL RUNNING SAFE SE 126 01:54:39 05:36 10.73
439 DEBERDT AICHA MMM A1 18 01:54:42 05:36 10.72
440 SALOMEZ FRÉDÉRIK MMM V1 151 01:54:42 05:36 10.72
441 BASTEN MICHAËL TRI ATH V1 152 01:55:03 05:37 10.69
442 SOLBREUX VÉRONIQUE   A1 19 01:55:07 05:37 10.68
443 GRIVET DOMINIQUE RUNNING SAFE V1 153 01:55:15 05:37 10.67
444 DELMARRE PIERRE FARMERS CLUB V2 81 01:55:16 05:37 10.67
445 NIEUWLAND JEAN-FRANÇOIS LES CHAPELIE... V1 154 01:55:20 05:38 10.66
446 LELEUX CHRISTOPHE   SE 127 01:55:21 05:38 10.66
447 BIENFAIT SÉBASTIEN   V1 155 01:55:22 05:38 10.66
448 LEBAILLY HELENE   DA 15 01:55:24 05:38 10.66
449 DUPONT DAVID   SE 128 01:55:26 05:38 10.65
450 CALONNE ANNE-SOPHIE SPHO DA 16 01:55:27 05:38 10.65
451 VAN HEE OLIVIER   V2 82 01:55:36 05:38 10.64
452 WAROUX CEDRIC RC ESTAIMPUIS V1 156 01:55:47 05:39 10.62
453 LOCHENIE DIDIER JCSA V2 83 01:55:50 05:39 10.62
454 WINDAL MAGALI TORTUES MESL... A1 20 01:55:51 05:39 10.61
455 ROCQUERELLE THOMAS   SE 129 01:55:51 05:39 10.61
456 DELEM BENOÎT TORTUES MESL... SE 130 01:55:51 05:39 10.61
457 MAERTE VIANNEY   SE 131 01:55:51 05:39 10.61
458 DEZEQUE DOMINIQUE JCSA V2 84 01:55:58 05:40 10.60
459 DESMET YVES JCSA V3 28 01:55:59 05:40 10.60
460 JUCHTMANS PIERRE ET CHIEVRES V2 85 01:56:01 05:40 10.60
461 LEBAIN ALAIN VELAINES V3 29 01:56:06 05:40 10.59
462 POLO ROMEO RODRIGUE   SE 132 01:56:09 05:40 10.59
463 DELILLE AURELIE SPHO DA 17 01:56:10 05:40 10.59
464 DE DONDER SOPHIE RUNNING SAFE A2 12 01:56:16 05:40 10.58
465 LECHANTRE SYLVETTE RC ESTAIMPUIS A1 21 01:56:16 05:40 10.58
466 MARÉCHAL DOMINIQUE   V2 86 01:56:23 05:41 10.57
467 CUVELIER FRANÇIS VELAINES V2 87 01:56:25 05:41 10.56
468 PEETERS JOËL PIPAIX V2 88 01:56:26 05:41 10.56
469 ROUPIN KEVIN   SE 133 01:56:28 05:41 10.56
470 DELOBELLE BERNADETTE SPHO A2 13 01:56:29 05:41 10.56
471 ASSOIGNONS CAMILLE   DA 18 01:56:30 05:41 10.55
472 DEVILLERS THIERRY   V1 157 01:56:33 05:41 10.55
473 LAMBERT RONAN QUEVY RUN V1 158 01:56:34 05:41 10.55
474 DUHEM GÉRARD BAC V2 89 01:56:43 05:42 10.54
475 DELCAMPE JENNIFER   DA 19 01:56:47 05:42 10.53
476 CORNILLIE HERVÉ   V1 159 01:56:50 05:42 10.52
477 STÉVENNE VALÉRIE PIPAIX DA 20 01:56:51 05:42 10.52
478 DECRUYENAERE FRÉDÉRIC FARMERS CLUB V1 160 01:56:59 05:42 10.51
479 VINCKIER VIRGINIE BCH A1 22 01:57:03 05:43 10.51
480 VANDERMEULEN BERNARD TORTUES MESL... V3 30 01:57:16 05:43 10.49
481 VINCHANT ARIANE   A1 23 01:57:26 05:44 10.47
482 FLAMME MARIE-JEANNE   DA 21 01:57:30 05:44 10.47
483 BOGEMANS SÉBASTIEN JC HERINNES SE 134 01:57:36 05:44 10.46
484 DUCHATELET XAVIER   SE 135 01:57:36 05:44 10.46
485 SERVAIS ANELISE   DA 22 01:57:37 05:44 10.45
486 HUMETZ HERVÉ JC HERINNES V2 90 01:57:37 05:44 10.45
487 THAON FRÉDÉRIC   V1 161 01:57:38 05:44 10.45
488 SCARCEZ DIDIER EUROCYCLO V2 91 01:57:42 05:45 10.45
489 BONNET DOROTHÉE PRFM A2 14 01:57:47 05:45 10.44
490 DECLERCQ YANNICK LES CHAPELIE... V1 162 01:57:48 05:45 10.44
491 GHYSELINGS VALENTIN TEMPLEUVE SE 136 01:57:57 05:45 10.43
492 RYCKEBOSCH LUDWIG B BETES DE C... V2 92 01:58:09 05:46 10.41
493 GILMONT CHANTAL ACLO BJB A3 1 01:58:13 05:46 10.40
494 DURIAU JEAN-LUC BJB V4 6 01:58:14 05:46 10.40
495 DUPONTHIEU ANGELIQUE   A1 24 01:58:23 05:47 10.39
496 WINAND JEAN-YVES   V1 163 01:58:23 05:47 10.39
497 PIACENTINI MICHAEL   V1 164 01:58:27 05:47 10.38
498 GOOSSENS MARC   V1 165 01:58:28 05:47 10.38
499 VIAENE DAVID POTES O MALTES V1 166 01:58:31 05:47 10.38
500 HOVINE CONSTANTIN FARMERS CLUB V2 93 01:58:44 05:48 10.36
501 JUSTE FRÉDÉRIC   V1 167 01:58:46 05:48 10.35
502 DEPELCHIN ANNE MC RUNNING A1 25 01:58:49 05:48 10.35
503 WANET DAMIEN RUN SOVIET RUN SE 137 01:59:06 05:49 10.32
504 ROUPIN TONY   SE 138 01:59:11 05:49 10.32
505 ROMAIN YOANN   SE 139 01:59:12 05:49 10.32
506 DE MEESTER GERMAIN TOURPES V3 31 01:59:15 05:49 10.31
507 DUVEILLER LAURENCE   A1 26 01:59:19 05:49 10.31
508 GHILGEMYN SANDRINE RUNNING SAFE A1 27 01:59:25 05:50 10.30
509 MAHIEZ DAVID COACH RUNNING V1 168 01:59:34 05:50 10.28
510 DESTREBECQ DIDIER   V2 94 01:59:36 05:50 10.28
511 QUEVY DIDIER MMM V2 95 01:59:41 05:50 10.27
512 CHEVALIER OLIVIER   V2 96 01:59:48 05:51 10.26
513 CABY BERNARD JCSA V2 97 02:00:01 05:51 10.25
514 VINCENT OLIVIER   V1 169 02:00:03 05:51 10.24
515 D HULSTER ELODIE   DA 23 02:00:08 05:52 10.24
516 DUPONCHEEL JEAN-CLAUDE RC ESTAIMPUIS V2 98 02:00:13 05:52 10.23
517 DELVAUX SYLVIE VERTIGO A2 15 02:00:17 05:52 10.22
518 DUPILET JÉRÉMIE   V1 170 02:00:18 05:52 10.22
519 PISANO INGRID ACBB DA 24 02:00:31 05:53 10.20
520 LEBLANC CARINE KAIN B A2 16 02:00:33 05:53 10.20
521 VINCENT VÉRONIQUE   A1 28 02:00:39 05:53 10.19
522 LECLERCQ ANTHONY RC ESTAIMPUIS SE 140 02:00:42 05:53 10.19
523 SEMPELS NATHALIE ATHOIS DE CO... A1 29 02:00:45 05:54 10.18
524 CONART FRANÇOISE SPHO A2 17 02:00:47 05:54 10.18
525 DUWELZ MICHAEL LEONIDAS V1 171 02:00:48 05:54 10.18
526 DEREUX FRANCIS   V3 32 02:00:51 05:54 10.17
527 BOUTIER MAXIME   SE 141 02:00:58 05:54 10.17
528 ROUIBI HAMIDA JC LUIGNE A1 30 02:00:58 05:54 10.17
529 DUMORTIER THOMAS   SE 142 02:01:05 05:54 10.16
530 MERLIN AURORE PUFF PUFF A1 31 02:01:06 05:55 10.15
531 HERME NATHALIE   A1 32 02:01:06 05:55 10.15
532 HAUBRUGE SÉBASTIEN   V1 172 02:01:06 05:55 10.15
533 AUDOOR ALAIN VELAINES V3 33 02:01:12 05:55 10.15
534 DEMAESENEIRE MICHAËL AS THURAWA V1 173 02:01:16 05:55 10.14
535 MAES AURORE SPORT EVASION DA 25 02:01:20 05:55 10.13
536 TILLEUL CARINE ETC A1 33 02:01:24 05:55 10.13
537 RENOTTE JEAN-CHRISTOPHE   V2 99 02:01:26 05:56 10.13
538 PLATTEAU OLIVIER AMIS DU JEUDI V2 100 02:01:34 05:56 10.11
539 SEMET JEAN-PAUL   V2 101 02:01:37 05:56 10.11
540 LONGEPEE PHILIPPE   V2 102 02:02:00 05:57 10.08
541 DELVAL FRÉDÉRIC   V1 174 02:02:15 05:58 10.06
542 NICOLAS CHADI CAP TEAM V1 175 02:02:16 05:58 10.06
543 ROCCARO GIUSEPPE RUNNING SAFE V2 103 02:02:19 05:58 10.05
544 VERHAEGHE VIRGINIE ATH ATHLETISME A1 34 02:02:20 05:58 10.05
545 CAMBIER ANNE-SOPHIE RUNNING SAFE DA 26 02:02:22 05:58 10.05
546 BERNARD KATTY RUNNING SAFE A1 35 02:02:32 05:59 10.04
547 DERVAUX JEAN-PAUL   V3 34 02:02:33 05:59 10.03
548 CLINQUART JEAN-CHRISTOPHE ROAD RUNNING... V1 176 02:02:33 05:59 10.03
549 DESMONT CATHERINE TRI ATH A1 36 02:02:35 05:59 10.03
550 FRENOY FREDERIQUE   A1 37 02:02:45 05:59 10.02
551 HOUFFLAIN RAPHAËL PUFF PUFF SE 143 02:02:49 06:00 10.01
552 POTTIEZ JEAN-LUC LES CEUSSES ... V2 104 02:02:51 06:00 10.01
553 JURQUIN CHRISTIAN LES CEUSSES ... V2 105 02:02:52 06:00 10.01
554 OLIVIER JÉRÔME   SE 144 02:02:59 06:00 10.00
555 DE CLERCQ MARION FARMERS CLUB DA 27 02:03:03 06:00 9.99
556 DELONVILLE DANIEL VELAINES V4 7 02:03:04 06:00 9.99
557 COUSSEMENT ALEXANDRA VELAINES DA 28 02:03:11 06:01 9.98
558 SAFY YVES   V1 177 02:03:14 06:01 9.98
559 DUGAUQUIER DANIEL HAC V3 35 02:03:16 06:01 9.98
560 DUQUESNE RAPHAEL US THUMAIDE V1 178 02:03:22 06:01 9.97
561 CARLIER BRUNO AS VELAINES V3 36 02:03:22 06:01 9.97
562 LEMAIRE LAURENT ECLA LANDAS V1 179 02:03:22 06:01 9.97
563 JANSSENS ROLAND TORTUES MESL... V2 106 02:03:22 06:01 9.97
564 LECONTE BRIGITTE SPHO A3 2 02:03:24 06:01 9.96
565 MUSASHA LEÏLA   A1 38 02:03:26 06:01 9.96
566 AUDRIT EMMANUEL HAC SE 145 02:03:27 06:01 9.96
567 DELCROIX LUC FARMERS CLUB V2 107 02:03:33 06:02 9.95
568 DE LAEVER JOEL HAC V2 108 02:03:33 06:02 9.95
569 DERAMAIX JEAN-MARIE TEAM RUNNING 46 V3 37 02:03:35 06:02 9.95
570 SYLVART TAMARA   A1 39 02:03:50 06:03 9.93
571 DE PAOLI SOPHIE COACH RUNNING DA 29 02:03:55 06:03 9.92
572 BEQUET YANNICK VELAINES A2 18 02:03:56 06:03 9.92
573 CORTVRINT HENRI ZS WAPI V2 109 02:04:26 06:04 9.88
574 DENEEF CARINE   V1 180 02:04:32 06:05 9.87
575 LOFEK ALEXIS   SE 146 02:04:32 06:05 9.87
576 ANSCIAUX GUILLAUME   SE 147 02:04:40 06:05 9.86
577 LITTERI MARINA MMM DA 30 02:04:42 06:05 9.86
578 VANDEPUTTE WILLY JC HERINNES V3 38 02:04:56 06:06 9.84
579 DEGALLAIX RÉGINALD   V1 181 02:05:38 06:08 9.79
580 NOTTEBAERT FLORIE   DA 31 02:05:47 06:08 9.78
581 LITTERI JOSEPH MMM SE 148 02:05:55 06:09 9.77
582 LECLERCQ RÉMI   SE 149 02:05:56 06:09 9.76
583 VAN EGSREEK STEPHANE   SE 150 02:06:26 06:10 9.73
584 ANDRE MARC   V2 110 02:06:27 06:10 9.72
585 BILTRESSE MICHEL KAIN B V4 8 02:06:35 06:11 9.71
586 ROTTHIER CATHERINE COACH RUNNING A2 19 02:06:48 06:11 9.70
587 GOETVINCK MARINA TORTUES MESL... A2 20 02:06:58 06:12 9.68
588 FERVAILLE FABIENNE KAIN B A2 21 02:07:16 06:13 9.66
589 FONTAINE LUC   V3 39 02:07:31 06:13 9.64
590 DELANGRE AMÉLIE FARMERS CLUB A1 40 02:07:35 06:14 9.64
591 VANDENBERG PETER ROBA RECREANTEN V1 182 02:07:40 06:14 9.63
592 GEURTS OLIVIER JC HERINNES V1 183 02:07:46 06:14 9.62
593 JAUPART VÉRONIQUE   A2 22 02:07:53 06:14 9.62
594 MONTÉ JEAN VELAINES V3 40 02:07:57 06:15 9.61
595 DEVOGHEL LAURENT MMM V1 184 02:07:57 06:15 9.61
596 TWASZKO LIVIA NINO DA 32 02:08:08 06:15 9.60
597 WRINCQ SYLVIE NINO A1 41 02:08:08 06:15 9.60
598 ORLANDO JOSEPH NINO V3 41 02:08:09 06:15 9.60
599 BILTRESSE NATHALIE NINO A1 42 02:08:09 06:15 9.60
600 GRAINDORGE CATHERINE DISCOVERY SPORT A2 23 02:08:13 06:15 9.59
601 THAON JOSÉ SPHO V3 42 02:08:15 06:15 9.59
602 HAMDOUN LAURA B BETES DE C... DA 33 02:08:16 06:16 9.59
603 DEGLÉ STEVE STEVIE ON TH... V1 185 02:08:16 06:16 9.59
604 FRIQUE MARIE-ANNE VELAINES A3 3 02:08:49 06:17 9.55
605 MUSUMECI BRUNO JCSA V3 43 02:09:05 06:18 9.53
606 DRUART PHILIPPE AC BELOEIL V1 186 02:09:28 06:19 9.50
607 DELAUNOY JACQUES   V3 44 02:09:37 06:19 9.49
608 SCHOONOOGHE ERWIN VELAINES V1 187 02:09:37 06:19 9.49
609 PIERQUIN SABINE JC HERINNES A2 24 02:09:38 06:20 9.49
610 DELVIN RÉGINE TORTUES MESL... A2 25 02:09:43 06:20 9.48
611 GUERIERI VERONIQUE RC ESTAIMPUIS DA 34 02:09:55 06:20 9.46
612 LECOUVET ISABELLE COACH RUNNING A2 26 02:09:55 06:20 9.46
613 BAUSIER PHILIPPE RUNNING FRIENDS V2 111 02:10:02 06:21 9.46
614 BOSSUYT ANNE-MARIE   A2 27 02:10:05 06:21 9.45
615 BECK JACQUES LESDAIN D LA... V2 112 02:10:07 06:21 9.45
616 SALOMÉ MICHEL ACCROS 5 CLO... V2 113 02:10:13 06:21 9.44
617 PORCU CLARA JC LUINGNE A2 28 02:10:17 06:21 9.44
618 COLLIE ANNE LES CEUSSES ... A1 43 02:10:22 06:22 9.43
619 FUNDUK STÉPHANIE   A1 44 02:10:22 06:22 9.43
620 VAN DE WIELE NICOLAS GAYOLLE SE 151 02:10:23 06:22 9.43
621 SIMONART DAVID   V1 188 02:11:02 06:24 9.38
622 VRYGHEM FLORENTINE TRI ATH ED 2 02:11:03 06:24 9.38
623 D HONDT SANDRINE LES CEUSSES ... A1 45 02:11:33 06:25 9.35
624 FERNANDES JOSE MMM V2 114 02:12:06 06:27 9.31
625 RYCKEBUSCH CHRISTOPHE MMM V1 189 02:12:07 06:27 9.31
626 DE WITTE CHRISTIAN   V3 45 02:12:14 06:27 9.30
627 LECLERCQ PHILIPPE ACCROS 5 CLO... V2 115 02:12:14 06:27 9.30
628 LEERSNYDER DELPHINE FARMERS CLUB A1 46 02:12:24 06:28 9.29
629 BROQUET AMANDINE FARMERS CLUB DA 35 02:12:25 06:28 9.29
630 CORNEZ LUTGARDE VELAINES A1 47 02:12:26 06:28 9.28
631 DERMAUT LUC FARMERS CLUB V2 116 02:12:26 06:28 9.28
632 DOULIEZ FABRICE   V2 117 02:12:32 06:28 9.28
633 DANIAUX NATHALIE   A2 29 02:12:33 06:28 9.28
634 DUBOIS THIBAUT   V1 190 02:13:10 06:30 9.23
635 BOUCART AUDELINE   DA 36 02:13:20 06:30 9.22
636 DEPAUW AURÉLIEN   SE 152 02:13:21 06:30 9.22
637 MARTIN YVES KAIN B V3 46 02:13:37 06:31 9.20
638 VANDER EECKEN FABRICE VELAINES V1 191 02:13:41 06:31 9.20
639 GEENENS LISE JC HERINNES DA 37 02:14:20 06:33 9.15
640 LEROY AUDREY JC HERINNES DA 38 02:14:20 06:33 9.15
641 THIERI STEPHANIE RC ESTAIMPUIS A1 48 02:14:42 06:34 9.13
642 GRULOIS DOMINIQUE   V2 118 02:14:50 06:35 9.12
643 COCU JEAN-LUC PRFM V3 47 02:14:58 06:35 9.11
644 DURIEZ PIERRE   SE 153 02:15:21 06:36 9.08
645 VANGHELUWE PATRICK VELAINES V3 48 02:15:39 06:37 9.06
646 LEBRUN MARC   V1 192 02:15:51 06:38 9.05
647 LEROY AUDE JC HERINNES A1 49 02:16:00 06:38 9.04
648 DEPLANQUE CHANTAL RC ESTAIMPUIS A3 4 02:16:05 06:38 9.04
649 DEBEURME NATHALIE   A1 50 02:16:26 06:39 9.01
650 CUVELIER LUC TORTUES MESL... V3 49 02:16:32 06:40 9.01
651 MASSÉ KARINE   A1 51 02:16:51 06:41 8.99
652 HOVINE MARIE-CECILE RC ESTAIMPUIS A1 52 02:16:56 06:41 8.98
653 DELLETTRE ANNE SPHO A2 30 02:18:18 06:45 8.89
654 DEBERDT DANY MMM V4 9 02:18:42 06:46 8.87
655 MENART CÉDRIC BAC V1 193 02:18:49 06:46 8.86
656 WILLOCQ DANIELLE HAC A3 5 02:18:50 06:46 8.86
657 DE RODDER ÉRIC BAC V2 119 02:19:02 06:47 8.84
658 THAON MICHELLE LES ECLATES ... A3 6 02:19:09 06:47 8.84
659 DEBUF CAROLINE   A1 53 02:19:22 06:48 8.82
660 TERESINSKI BERNARD TRI ATH V2 120 02:19:52 06:49 8.79
661 ADAM FLORENCE TRI ATH DA 39 02:20:08 06:50 8.77
662 WATTEZ NATHALIE TRI ATH A1 54 02:20:09 06:50 8.77
663 KANE ANTHONY MMM MOUSCRON V2 121 02:20:13 06:51 8.77
664 VERDY ROMAIN RUN 4 FUN SE 154 02:20:28 06:51 8.75
665 RENARD PASCAL JCL V2 122 02:20:38 06:52 8.74
666 JAIVENOIS MARTINE   A2 31 02:21:11 06:53 8.71
667 HELIN VÉRONIQUE   A2 32 02:22:01 06:56 8.66
668 LUCION VINCENT   V2 123 02:22:11 06:56 8.65
669 DELOBE CÉLINE NINO DA 40 02:22:15 06:56 8.64
670 MOUTURY CORALIE BAC A1 55 02:22:34 06:57 8.63
671 PEUTTE SYLVIE VELAINES A2 33 02:22:34 06:57 8.63
672 PANCHERI STEPHANIE LES ECLATES DA 41 02:23:35 07:00 8.56
673 FLAMENG LAURENT JC DES COLLINES V1 194 02:24:10 07:02 8.53
674 PALEOVRISIOTIS MARIA SEMI DE L'OU... A2 34 02:24:13 07:02 8.53
675 MARTIN ALISSON   DA 42 02:24:19 07:03 8.52
676 HOLVOET DELPHINE   A1 56 02:24:43 07:04 8.50
677 VANHOUTTE STÉPHANIE   A1 57 02:24:44 07:04 8.50
678 MALFRERE FABRICE ECLATES PERU... V1 195 02:25:11 07:05 8.47
679 L ERARIO CÉLINE PRFM DA 43 02:25:12 07:05 8.47
680 MERIAUX TIPHAINE   DA 44 02:25:12 07:05 8.47
681 DUTILLEUL ANNE-MARIE VELAINES A3 7 02:25:49 07:07 8.43
682 PIRON MICHAEL RUNNING SAFE SE 155 02:25:54 07:07 8.43
683 SOETE NANCY SOET TEAM DA 45 02:26:11 07:08 8.41
684 DELCAMBE MURIELLE VELAINES A2 35 02:26:41 07:09 8.38
685 DEMERDER DELPHINE   DA 46 02:26:57 07:10 8.37
686 RUSTIN JEAN-JACQUES SPHO V2 124 02:27:24 07:12 8.34
687 VANDERMEIREN GÉRALDINE PUFF PUFF DA 47 02:27:47 07:13 8.32
688 MARQUEZ ANDRES   V2 125 02:27:59 07:13 8.31
689 FONTAINE CHRISTELLE TEMPLEUVE A2 36 02:28:28 07:15 8.28
690 CARPENTIER SÉVERINE   A1 58 02:28:48 07:16 8.26
691 DE CRAENE JEAN-PHILIPPE   V1 196 02:28:49 07:16 8.26
692 DE NÈVE CHANTAL AC ST SAUVEU... A2 37 02:29:51 07:19 8.21
693 LOR SANDRA TORTUES MESL... A1 59 02:30:05 07:19 8.19
694 FANUEL JEAN-PIERRE   V3 50 02:30:58 07:22 8.15
695 DERDOUR ZELJKA RC ESTAIMPUIS A1 60 02:31:29 07:23 8.12
696 LOCUS DANIELLE JAMES A2 38 02:31:51 07:25 8.10
697 VAN DE VIJVELLE ANN   A1 61 02:31:51 07:25 8.10
698 BERTHE QUENTIN   SE 156 02:32:10 07:25 8.08
699 TAMARIN-HUART FABIOLA JC BAUDOUR A2 39 02:32:30 07:26 8.06
700 COUDYZER MICHEL KAIN B V2 126 02:32:51 07:27 8.04
701 ALLARD STEPHANE TIME TO RUN V3 51 02:33:18 07:29 8.02
702 ROMAN VANESSA TORTUES MESL... A1 62 02:34:48 07:33 7.94
703 GEORGES DIDIER   V2 127 02:34:48 07:33 7.94
704 BOURDON SOPHIE ECLATES PERU... DA 48 02:35:24 07:35 7.91
705 DE LENA PHILIPPE   V2 128 02:40:08 07:49 7.68
706 MARQUANT NICOLAS LES CEUSSES ... SE 157 02:40:58 07:51 7.64
707 DENS JULIEN   SE 158 02:40:59 07:51 7.64
708 HACHA FRANÇOIS CNDK V2 129 02:44:04 08:00 7.49